sensor_id;sensor_type;location;lat;lon;timestamp;P1;durP1;ratioP1;P2;durP2;ratioP2
80578;SDS011;69939;52.402;6.608;2023-07-31T00:01:13;2.85;;;0.60;;
80578;SDS011;69939;52.402;6.608;2023-07-31T00:03:43;0.65;;;0.63;;
80578;SDS011;69939;52.402;6.608;2023-07-31T00:06:12;0.63;;;0.60;;
80578;SDS011;69939;52.402;6.608;2023-07-31T00:11:10;1.33;;;0.45;;
80578;SDS011;69939;52.402;6.608;2023-07-31T00:13:40;0.95;;;0.60;;
80578;SDS011;69939;52.402;6.608;2023-07-31T00:16:11;0.85;;;0.50;;
80578;SDS011;69939;52.402;6.608;2023-07-31T00:18:41;0.70;;;0.50;;
80578;SDS011;69939;52.402;6.608;2023-07-31T00:21:10;1.80;;;0.60;;
80578;SDS011;69939;52.402;6.608;2023-07-31T00:23:39;0.75;;;0.40;;
80578;SDS011;69939;52.402;6.608;2023-07-31T00:26:09;0.55;;;0.43;;
80578;SDS011;69939;52.402;6.608;2023-07-31T00:28:38;0.82;;;0.55;;
80578;SDS011;69939;52.402;6.608;2023-07-31T00:31:07;5.25;;;0.63;;
80578;SDS011;69939;52.402;6.608;2023-07-31T00:36:08;0.40;;;0.35;;
80578;SDS011;69939;52.402;6.608;2023-07-31T00:38:39;0.88;;;0.30;;
80578;SDS011;69939;52.402;6.608;2023-07-31T00:41:09;0.70;;;0.28;;
80578;SDS011;69939;52.402;6.608;2023-07-31T00:43:38;0.45;;;0.45;;
80578;SDS011;69939;52.402;6.608;2023-07-31T00:46:07;0.75;;;0.60;;
80578;SDS011;69939;52.402;6.608;2023-07-31T00:48:40;0.80;;;0.50;;
80578;SDS011;69939;52.402;6.608;2023-07-31T00:51:09;0.90;;;0.40;;
80578;SDS011;69939;52.402;6.608;2023-07-31T00:53:40;1.00;;;0.60;;
80578;SDS011;69939;52.402;6.608;2023-07-31T00:56:10;1.10;;;0.65;;
80578;SDS011;69939;52.402;6.608;2023-07-31T00:58:41;0.77;;;0.47;;
80578;SDS011;69939;52.402;6.608;2023-07-31T01:01:10;0.63;;;0.40;;
80578;SDS011;69939;52.402;6.608;2023-07-31T01:03:42;0.60;;;0.38;;
80578;SDS011;69939;52.402;6.608;2023-07-31T01:06:14;0.60;;;0.40;;
80578;SDS011;69939;52.402;6.608;2023-07-31T01:08:58;0.68;;;0.40;;
80578;SDS011;69939;52.402;6.608;2023-07-31T01:11:33;0.40;;;0.10;;
80578;SDS011;69939;52.402;6.608;2023-07-31T01:14:07;0.90;;;0.40;;
80578;SDS011;69939;52.402;6.608;2023-07-31T01:16:37;0.25;;;0.20;;
80578;SDS011;69939;52.402;6.608;2023-07-31T01:19:09;0.73;;;0.30;;
80578;SDS011;69939;52.402;6.608;2023-07-31T01:21:56;0.40;;;0.30;;
80578;SDS011;69939;52.402;6.608;2023-07-31T01:24:53;0.50;;;0.30;;
80578;SDS011;69939;52.402;6.608;2023-07-31T01:27:38;0.00;;;0.00;;
80578;SDS011;69939;52.402;6.608;2023-07-31T01:30:22;0.65;;;0.30;;
80578;SDS011;69939;52.402;6.608;2023-07-31T01:33:02;0.90;;;0.30;;
80578;SDS011;69939;52.402;6.608;2023-07-31T01:35:35;0.40;;;0.25;;
80578;SDS011;69939;52.402;6.608;2023-07-31T01:38:06;0.30;;;0.25;;
80578;SDS011;69939;52.402;6.608;2023-07-31T01:40:37;1.42;;;0.40;;
80578;SDS011;69939;52.402;6.608;2023-07-31T01:43:08;0.40;;;0.30;;
80578;SDS011;69939;52.402;6.608;2023-07-31T01:45:42;0.35;;;0.30;;
80578;SDS011;69939;52.402;6.608;2023-07-31T01:48:12;0.40;;;0.10;;
80578;SDS011;69939;52.402;6.608;2023-07-31T01:50:41;0.32;;;0.20;;
80578;SDS011;69939;52.402;6.608;2023-07-31T01:55:42;0.80;;;0.30;;
80578;SDS011;69939;52.402;6.608;2023-07-31T01:58:14;0.65;;;0.32;;
80578;SDS011;69939;52.402;6.608;2023-07-31T02:00:43;0.45;;;0.30;;
80578;SDS011;69939;52.402;6.608;2023-07-31T02:03:13;0.20;;;0.20;;
80578;SDS011;69939;52.402;6.608;2023-07-31T02:05:44;0.40;;;0.30;;
80578;SDS011;69939;52.402;6.608;2023-07-31T02:08:16;0.00;;;0.00;;
80578;SDS011;69939;52.402;6.608;2023-07-31T02:10:45;0.60;;;0.20;;
80578;SDS011;69939;52.402;6.608;2023-07-31T02:13:17;0.85;;;0.22;;
80578;SDS011;69939;52.402;6.608;2023-07-31T02:15:47;0.28;;;0.17;;
80578;SDS011;69939;52.402;6.608;2023-07-31T02:18:17;1.42;;;0.40;;
80578;SDS011;69939;52.402;6.608;2023-07-31T02:20:48;0.90;;;0.20;;
80578;SDS011;69939;52.402;6.608;2023-07-31T02:23:18;0.25;;;0.13;;
80578;SDS011;69939;52.402;6.608;2023-07-31T02:25:48;0.35;;;0.20;;
80578;SDS011;69939;52.402;6.608;2023-07-31T02:28:20;0.45;;;0.28;;
80578;SDS011;69939;52.402;6.608;2023-07-31T02:30:50;0.20;;;0.20;;
80578;SDS011;69939;52.402;6.608;2023-07-31T02:33:22;0.40;;;0.10;;
80578;SDS011;69939;52.402;6.608;2023-07-31T02:35:53;0.60;;;0.25;;
80578;SDS011;69939;52.402;6.608;2023-07-31T02:38:23;1.23;;;0.25;;
80578;SDS011;69939;52.402;6.608;2023-07-31T02:40:52;0.38;;;0.30;;
80578;SDS011;69939;52.402;6.608;2023-07-31T02:43:25;0.35;;;0.20;;
80578;SDS011;69939;52.402;6.608;2023-07-31T02:45:54;0.52;;;0.10;;
80578;SDS011;69939;52.402;6.608;2023-07-31T02:48:24;0.38;;;0.28;;
80578;SDS011;69939;52.402;6.608;2023-07-31T02:50:54;0.43;;;0.25;;
80578;SDS011;69939;52.402;6.608;2023-07-31T02:53:23;1.50;;;0.30;;
80578;SDS011;69939;52.402;6.608;2023-07-31T02:55:52;0.65;;;0.25;;
80578;SDS011;69939;52.402;6.608;2023-07-31T02:58:25;1.23;;;0.32;;
80578;SDS011;69939;52.402;6.608;2023-07-31T03:00:54;0.43;;;0.30;;
80578;SDS011;69939;52.402;6.608;2023-07-31T03:03:23;1.00;;;0.30;;
80578;SDS011;69939;52.402;6.608;2023-07-31T03:05:52;0.45;;;0.20;;
80578;SDS011;69939;52.402;6.608;2023-07-31T03:08:21;0.32;;;0.32;;
80578;SDS011;69939;52.402;6.608;2023-07-31T03:10:51;0.68;;;0.40;;
80578;SDS011;69939;52.402;6.608;2023-07-31T03:13:21;1.00;;;0.65;;
80578;SDS011;69939;52.402;6.608;2023-07-31T03:15:54;0.50;;;0.30;;
80578;SDS011;69939;52.402;6.608;2023-07-31T03:18:24;1.13;;;0.57;;
80578;SDS011;69939;52.402;6.608;2023-07-31T03:20:53;0.55;;;0.32;;
80578;SDS011;69939;52.402;6.608;2023-07-31T03:23:22;1.52;;;0.45;;
80578;SDS011;69939;52.402;6.608;2023-07-31T03:25:55;1.23;;;0.68;;
80578;SDS011;69939;52.402;6.608;2023-07-31T03:28:28;0.95;;;0.73;;
80578;SDS011;69939;52.402;6.608;2023-07-31T03:31:00;0.73;;;0.63;;
80578;SDS011;69939;52.402;6.608;2023-07-31T03:33:33;0.82;;;0.50;;
80578;SDS011;69939;52.402;6.608;2023-07-31T03:36:02;0.80;;;0.60;;
80578;SDS011;69939;52.402;6.608;2023-07-31T03:38:34;2.95;;;0.80;;
80578;SDS011;69939;52.402;6.608;2023-07-31T03:41:03;1.25;;;0.68;;
80578;SDS011;69939;52.402;6.608;2023-07-31T03:43:33;2.10;;;0.98;;
80578;SDS011;69939;52.402;6.608;2023-07-31T03:46:04;2.25;;;1.08;;
80578;SDS011;69939;52.402;6.608;2023-07-31T03:48:34;1.75;;;1.08;;
80578;SDS011;69939;52.402;6.608;2023-07-31T03:51:03;1.60;;;0.82;;
80578;SDS011;69939;52.402;6.608;2023-07-31T03:56:01;1.98;;;1.02;;
80578;SDS011;69939;52.402;6.608;2023-07-31T03:58:31;2.22;;;1.23;;
80578;SDS011;69939;52.402;6.608;2023-07-31T04:01:06;2.75;;;1.13;;
80578;SDS011;69939;52.402;6.608;2023-07-31T04:03:35;2.38;;;1.42;;
80578;SDS011;69939;52.402;6.608;2023-07-31T04:06:04;2.25;;;1.48;;
80578;SDS011;69939;52.402;6.608;2023-07-31T04:08:35;1.65;;;0.93;;
80578;SDS011;69939;52.402;6.608;2023-07-31T04:11:05;2.28;;;1.17;;
80578;SDS011;69939;52.402;6.608;2023-07-31T04:13:35;2.10;;;1.60;;
80578;SDS011;69939;52.402;6.608;2023-07-31T04:16:07;3.17;;;1.60;;
80578;SDS011;69939;52.402;6.608;2023-07-31T04:18:37;3.22;;;1.92;;
80578;SDS011;69939;52.402;6.608;2023-07-31T04:21:06;1.92;;;1.08;;
80578;SDS011;69939;52.402;6.608;2023-07-31T04:26:04;1.90;;;1.05;;
80578;SDS011;69939;52.402;6.608;2023-07-31T04:28:34;3.50;;;1.90;;
80578;SDS011;69939;52.402;6.608;2023-07-31T04:31:03;3.50;;;2.03;;
80578;SDS011;69939;52.402;6.608;2023-07-31T04:36:04;4.78;;;1.77;;
80578;SDS011;69939;52.402;6.608;2023-07-31T04:38:33;5.07;;;1.80;;
80578;SDS011;69939;52.402;6.608;2023-07-31T04:41:03;3.28;;;2.50;;
80578;SDS011;69939;52.402;6.608;2023-07-31T04:43:32;4.80;;;2.90;;
80578;SDS011;69939;52.402;6.608;2023-07-31T04:46:04;3.25;;;1.95;;
80578;SDS011;69939;52.402;6.608;2023-07-31T04:48:36;2.30;;;1.77;;
80578;SDS011;69939;52.402;6.608;2023-07-31T04:51:05;3.75;;;1.77;;
80578;SDS011;69939;52.402;6.608;2023-07-31T04:53:34;3.08;;;1.67;;
80578;SDS011;69939;52.402;6.608;2023-07-31T04:56:05;5.60;;;2.30;;
80578;SDS011;69939;52.402;6.608;2023-07-31T04:58:35;6.43;;;1.95;;
80578;SDS011;69939;52.402;6.608;2023-07-31T05:01:05;3.63;;;2.17;;
80578;SDS011;69939;52.402;6.608;2023-07-31T05:03:37;4.13;;;2.15;;
80578;SDS011;69939;52.402;6.608;2023-07-31T05:06:06;5.40;;;2.63;;
80578;SDS011;69939;52.402;6.608;2023-07-31T05:08:35;5.13;;;3.20;;
80578;SDS011;69939;52.402;6.608;2023-07-31T05:13:33;6.22;;;3.05;;
80578;SDS011;69939;52.402;6.608;2023-07-31T05:16:03;6.28;;;2.28;;
80578;SDS011;69939;52.402;6.608;2023-07-31T05:18:32;3.53;;;2.35;;
80578;SDS011;69939;52.402;6.608;2023-07-31T05:21:04;2.95;;;1.73;;
80578;SDS011;69939;52.402;6.608;2023-07-31T05:23:33;4.10;;;2.65;;
80578;SDS011;69939;52.402;6.608;2023-07-31T05:26:02;5.75;;;3.15;;
80578;SDS011;69939;52.402;6.608;2023-07-31T05:28:33;3.95;;;1.83;;
80578;SDS011;69939;52.402;6.608;2023-07-31T05:31:04;4.60;;;2.78;;
80578;SDS011;69939;52.402;6.608;2023-07-31T05:33:34;4.18;;;2.80;;
80578;SDS011;69939;52.402;6.608;2023-07-31T05:36:06;3.03;;;1.70;;
80578;SDS011;69939;52.402;6.608;2023-07-31T05:38:35;8.43;;;3.55;;
80578;SDS011;69939;52.402;6.608;2023-07-31T05:41:04;13.55;;;2.85;;
80578;SDS011;69939;52.402;6.608;2023-07-31T05:43:33;4.97;;;2.25;;
80578;SDS011;69939;52.402;6.608;2023-07-31T05:48:32;3.33;;;1.83;;
80578;SDS011;69939;52.402;6.608;2023-07-31T05:51:02;5.85;;;3.03;;
80578;SDS011;69939;52.402;6.608;2023-07-31T05:53:33;8.75;;;2.95;;
80578;SDS011;69939;52.402;6.608;2023-07-31T05:56:05;5.90;;;3.13;;
80578;SDS011;69939;52.402;6.608;2023-07-31T05:58:34;6.00;;;2.78;;
80578;SDS011;69939;52.402;6.608;2023-07-31T06:01:04;4.90;;;2.10;;
80578;SDS011;69939;52.402;6.608;2023-07-31T06:03:33;7.57;;;3.15;;
80578;SDS011;69939;52.402;6.608;2023-07-31T06:06:02;4.40;;;2.13;;
80578;SDS011;69939;52.402;6.608;2023-07-31T06:08:34;4.65;;;2.58;;
80578;SDS011;69939;52.402;6.608;2023-07-31T06:11:03;6.68;;;2.50;;
80578;SDS011;69939;52.402;6.608;2023-07-31T06:13:34;6.57;;;3.33;;
80578;SDS011;69939;52.402;6.608;2023-07-31T06:16:03;2.75;;;1.35;;
80578;SDS011;69939;52.402;6.608;2023-07-31T06:18:33;6.30;;;2.83;;
80578;SDS011;69939;52.402;6.608;2023-07-31T06:21:02;5.32;;;2.10;;
80578;SDS011;69939;52.402;6.608;2023-07-31T06:23:36;6.00;;;3.42;;
80578;SDS011;69939;52.402;6.608;2023-07-31T06:26:05;3.85;;;2.88;;
80578;SDS011;69939;52.402;6.608;2023-07-31T06:28:34;11.25;;;3.30;;
80578;SDS011;69939;52.402;6.608;2023-07-31T06:31:04;6.30;;;3.35;;
80578;SDS011;69939;52.402;6.608;2023-07-31T06:33:33;4.88;;;2.17;;
80578;SDS011;69939;52.402;6.608;2023-07-31T06:36:02;7.15;;;2.80;;
80578;SDS011;69939;52.402;6.608;2023-07-31T06:38:36;6.85;;;3.10;;
80578;SDS011;69939;52.402;6.608;2023-07-31T06:41:05;1.98;;;1.33;;
80578;SDS011;69939;52.402;6.608;2023-07-31T06:43:35;6.03;;;2.85;;
80578;SDS011;69939;52.402;6.608;2023-07-31T06:46:04;4.68;;;2.17;;
80578;SDS011;69939;52.402;6.608;2023-07-31T06:48:35;5.40;;;2.17;;
80578;SDS011;69939;52.402;6.608;2023-07-31T06:51:04;2.95;;;1.88;;
80578;SDS011;69939;52.402;6.608;2023-07-31T06:53:36;3.72;;;2.42;;
80578;SDS011;69939;52.402;6.608;2023-07-31T06:56:06;5.97;;;2.45;;
80578;SDS011;69939;52.402;6.608;2023-07-31T06:58:36;5.13;;;1.65;;
80578;SDS011;69939;52.402;6.608;2023-07-31T07:03:34;3.40;;;1.98;;
80578;SDS011;69939;52.402;6.608;2023-07-31T07:08:32;4.40;;;2.35;;
80578;SDS011;69939;52.402;6.608;2023-07-31T07:11:04;2.17;;;1.42;;
80578;SDS011;69939;52.402;6.608;2023-07-31T07:13:33;2.55;;;1.70;;
80578;SDS011;69939;52.402;6.608;2023-07-31T07:16:02;2.88;;;1.80;;
80578;SDS011;69939;52.402;6.608;2023-07-31T07:18:32;3.47;;;1.60;;
80578;SDS011;69939;52.402;6.608;2023-07-31T07:23:33;4.10;;;1.98;;
80578;SDS011;69939;52.402;6.608;2023-07-31T07:26:05;1.90;;;1.38;;
80578;SDS011;69939;52.402;6.608;2023-07-31T07:28:34;2.60;;;1.40;;
80578;SDS011;69939;52.402;6.608;2023-07-31T07:31:04;1.70;;;1.02;;
80578;SDS011;69939;52.402;6.608;2023-07-31T07:36:02;3.47;;;1.42;;
80578;SDS011;69939;52.402;6.608;2023-07-31T07:38:34;1.30;;;0.82;;
80578;SDS011;69939;52.402;6.608;2023-07-31T07:41:07;3.00;;;1.48;;
80578;SDS011;69939;52.402;6.608;2023-07-31T07:43:36;2.63;;;1.48;;
80578;SDS011;69939;52.402;6.608;2023-07-31T07:46:06;3.50;;;1.67;;
80578;SDS011;69939;52.402;6.608;2023-07-31T07:48:35;2.03;;;1.40;;
80578;SDS011;69939;52.402;6.608;2023-07-31T07:53:33;1.88;;;1.20;;
80578;SDS011;69939;52.402;6.608;2023-07-31T07:58:34;2.40;;;1.20;;
80578;SDS011;69939;52.402;6.608;2023-07-31T08:01:03;2.80;;;1.48;;
80578;SDS011;69939;52.402;6.608;2023-07-31T08:03:33;1.70;;;1.02;;
80578;SDS011;69939;52.402;6.608;2023-07-31T08:06:02;1.45;;;0.88;;
80578;SDS011;69939;52.402;6.608;2023-07-31T08:08:33;2.30;;;0.88;;
80578;SDS011;69939;52.402;6.608;2023-07-31T08:11:02;1.10;;;0.60;;
80578;SDS011;69939;52.402;6.608;2023-07-31T08:13:34;1.13;;;1.02;;
80578;SDS011;69939;52.402;6.608;2023-07-31T08:16:04;1.20;;;0.75;;
80578;SDS011;69939;52.402;6.608;2023-07-31T08:18:34;1.27;;;0.82;;
80578;SDS011;69939;52.402;6.608;2023-07-31T08:21:03;1.67;;;0.70;;
80578;SDS011;69939;52.402;6.608;2023-07-31T08:23:32;1.33;;;0.65;;
80578;SDS011;69939;52.402;6.608;2023-07-31T08:26:01;1.05;;;0.60;;
80578;SDS011;69939;52.402;6.608;2023-07-31T08:31:03;0.70;;;0.65;;
80578;SDS011;69939;52.402;6.608;2023-07-31T08:33:35;0.88;;;0.22;;
80578;SDS011;69939;52.402;6.608;2023-07-31T08:36:06;1.35;;;0.70;;
80578;SDS011;69939;52.402;6.608;2023-07-31T08:38:36;0.40;;;0.38;;
80578;SDS011;69939;52.402;6.608;2023-07-31T08:41:05;0.88;;;0.32;;
80578;SDS011;69939;52.402;6.608;2023-07-31T08:43:34;0.90;;;0.55;;
80578;SDS011;69939;52.402;6.608;2023-07-31T08:46:08;1.17;;;0.70;;
80578;SDS011;69939;52.402;6.608;2023-07-31T08:48:39;1.20;;;0.57;;
80578;SDS011;69939;52.402;6.608;2023-07-31T08:51:13;0.25;;;0.20;;
80578;SDS011;69939;52.402;6.608;2023-07-31T08:53:43;5.32;;;0.45;;
80578;SDS011;69939;52.402;6.608;2023-07-31T08:56:12;1.98;;;0.30;;
80578;SDS011;69939;52.402;6.608;2023-07-31T08:58:43;0.47;;;0.30;;
80578;SDS011;69939;52.402;6.608;2023-07-31T09:01:17;0.28;;;0.20;;
80578;SDS011;69939;52.402;6.608;2023-07-31T09:03:46;0.90;;;0.52;;
80578;SDS011;69939;52.402;6.608;2023-07-31T09:06:18;0.30;;;0.20;;
80578;SDS011;69939;52.402;6.608;2023-07-31T09:11:22;0.10;;;0.10;;
80578;SDS011;69939;52.402;6.608;2023-07-31T09:13:54;0.35;;;0.15;;
80578;SDS011;69939;52.402;6.608;2023-07-31T09:16:30;0.70;;;0.40;;
80578;SDS011;69939;52.402;6.608;2023-07-31T09:21:30;0.20;;;0.10;;
80578;SDS011;69939;52.402;6.608;2023-07-31T09:24:00;0.30;;;0.15;;
80578;SDS011;69939;52.402;6.608;2023-07-31T09:26:33;0.32;;;0.20;;
80578;SDS011;69939;52.402;6.608;2023-07-31T09:29:06;0.10;;;0.10;;
80578;SDS011;69939;52.402;6.608;2023-07-31T09:31:50;0.40;;;0.30;;
80578;SDS011;69939;52.402;6.608;2023-07-31T09:34:19;0.30;;;0.22;;
80578;SDS011;69939;52.402;6.608;2023-07-31T09:36:57;0.20;;;0.10;;
80578;SDS011;69939;52.402;6.608;2023-07-31T09:39:30;0.32;;;0.20;;
80578;SDS011;69939;52.402;6.608;2023-07-31T09:42:00;0.47;;;0.17;;
80578;SDS011;69939;52.402;6.608;2023-07-31T09:44:37;0.70;;;0.40;;
80578;SDS011;69939;52.402;6.608;2023-07-31T09:47:23;0.10;;;0.10;;
80578;SDS011;69939;52.402;6.608;2023-07-31T09:49:52;0.20;;;0.20;;
80578;SDS011;69939;52.402;6.608;2023-07-31T09:52:25;0.30;;;0.22;;
80578;SDS011;69939;52.402;6.608;2023-07-31T09:54:55;0.30;;;0.22;;
80578;SDS011;69939;52.402;6.608;2023-07-31T09:57:24;0.10;;;0.10;;
80578;SDS011;69939;52.402;6.608;2023-07-31T09:59:56;0.22;;;0.13;;
80578;SDS011;69939;52.402;6.608;2023-07-31T10:02:29;0.10;;;0.10;;
80578;SDS011;69939;52.402;6.608;2023-07-31T10:05:04;0.03;;;0.03;;
80578;SDS011;69939;52.402;6.608;2023-07-31T10:10:28;1.20;;;0.28;;
80578;SDS011;69939;52.402;6.608;2023-07-31T10:12:59;0.60;;;0.45;;
80578;SDS011;69939;52.402;6.608;2023-07-31T10:15:32;0.20;;;0.13;;
80578;SDS011;69939;52.402;6.608;2023-07-31T10:18:07;0.30;;;0.30;;
80578;SDS011;69939;52.402;6.608;2023-07-31T10:20:36;0.50;;;0.30;;
80578;SDS011;69939;52.402;6.608;2023-07-31T10:23:06;0.25;;;0.17;;
80578;SDS011;69939;52.402;6.608;2023-07-31T10:25:37;0.13;;;0.13;;
80578;SDS011;69939;52.402;6.608;2023-07-31T10:28:07;0.57;;;0.40;;
80578;SDS011;69939;52.402;6.608;2023-07-31T10:30:38;0.50;;;0.40;;
80578;SDS011;69939;52.402;6.608;2023-07-31T10:33:12;0.30;;;0.20;;
80578;SDS011;69939;52.402;6.608;2023-07-31T10:35:42;0.38;;;0.35;;
80578;SDS011;69939;52.402;6.608;2023-07-31T10:38:11;0.40;;;0.30;;
80578;SDS011;69939;52.402;6.608;2023-07-31T10:40:41;0.30;;;0.30;;
80578;SDS011;69939;52.402;6.608;2023-07-31T10:43:10;0.43;;;0.43;;
80578;SDS011;69939;52.402;6.608;2023-07-31T10:45:55;0.80;;;0.55;;
80578;SDS011;69939;52.402;6.608;2023-07-31T10:48:27;0.75;;;0.50;;
80578;SDS011;69939;52.402;6.608;2023-07-31T10:51:06;0.68;;;0.47;;
80578;SDS011;69939;52.402;6.608;2023-07-31T10:53:38;1.00;;;0.73;;
80578;SDS011;69939;52.402;6.608;2023-07-31T10:56:08;0.63;;;0.38;;
80578;SDS011;69939;52.402;6.608;2023-07-31T10:58:53;0.93;;;0.63;;
80578;SDS011;69939;52.402;6.608;2023-07-31T11:04:25;0.85;;;0.70;;
80578;SDS011;69939;52.402;6.608;2023-07-31T11:06:57;0.70;;;0.70;;
80578;SDS011;69939;52.402;6.608;2023-07-31T11:09:28;0.85;;;0.75;;
80578;SDS011;69939;52.402;6.608;2023-07-31T11:11:59;1.10;;;0.80;;
80578;SDS011;69939;52.402;6.608;2023-07-31T11:14:32;1.25;;;0.88;;
80578;SDS011;69939;52.402;6.608;2023-07-31T11:17:05;1.63;;;0.90;;
80578;SDS011;69939;52.402;6.608;2023-07-31T11:19:37;1.08;;;0.60;;
80578;SDS011;69939;52.402;6.608;2023-07-31T11:22:07;1.73;;;1.30;;
80578;SDS011;69939;52.402;6.608;2023-07-31T11:24:36;1.63;;;1.02;;
80578;SDS011;69939;52.402;6.608;2023-07-31T11:27:07;0.80;;;0.80;;
80578;SDS011;69939;52.402;6.608;2023-07-31T11:29:36;2.30;;;1.42;;
80578;SDS011;69939;52.402;6.608;2023-07-31T11:34:54;2.58;;;1.65;;
80578;SDS011;69939;52.402;6.608;2023-07-31T11:37:24;1.73;;;1.08;;
80578;SDS011;69939;52.402;6.608;2023-07-31T11:40:07;3.53;;;1.75;;
80578;SDS011;69939;52.402;6.608;2023-07-31T11:42:38;2.25;;;1.80;;
80578;SDS011;69939;52.402;6.608;2023-07-31T11:45:08;2.67;;;2.15;;
80578;SDS011;69939;52.402;6.608;2023-07-31T11:47:38;2.45;;;1.83;;
80578;SDS011;69939;52.402;6.608;2023-07-31T11:50:10;1.67;;;1.55;;
80578;SDS011;69939;52.402;6.608;2023-07-31T11:52:41;1.80;;;1.48;;
80578;SDS011;69939;52.402;6.608;2023-07-31T11:55:14;3.10;;;2.80;;
80578;SDS011;69939;52.402;6.608;2023-07-31T11:57:45;3.47;;;2.22;;
80578;SDS011;69939;52.402;6.608;2023-07-31T12:00:16;2.78;;;2.47;;
80578;SDS011;69939;52.402;6.608;2023-07-31T12:02:48;3.47;;;2.20;;
80578;SDS011;69939;52.402;6.608;2023-07-31T12:05:21;3.95;;;2.50;;
80578;SDS011;69939;52.402;6.608;2023-07-31T12:07:52;5.05;;;2.30;;
80578;SDS011;69939;52.402;6.608;2023-07-31T12:10:26;2.45;;;2.03;;
80578;SDS011;69939;52.402;6.608;2023-07-31T12:13:02;3.30;;;2.47;;
80578;SDS011;69939;52.402;6.608;2023-07-31T12:15:36;3.53;;;2.83;;
80578;SDS011;69939;52.402;6.608;2023-07-31T12:18:08;4.30;;;3.22;;
80578;SDS011;69939;52.402;6.608;2023-07-31T12:20:45;3.08;;;2.30;;
80578;SDS011;69939;52.402;6.608;2023-07-31T12:23:17;3.72;;;2.83;;
80578;SDS011;69939;52.402;6.608;2023-07-31T12:25:59;2.28;;;2.08;;
80578;SDS011;69939;52.402;6.608;2023-07-31T12:28:34;2.40;;;1.95;;
80578;SDS011;69939;52.402;6.608;2023-07-31T12:31:05;4.13;;;2.63;;
80578;SDS011;69939;52.402;6.608;2023-07-31T12:33:39;3.67;;;2.67;;
80578;SDS011;69939;52.402;6.608;2023-07-31T12:36:13;2.28;;;2.08;;
80578;SDS011;69939;52.402;6.608;2023-07-31T12:38:44;2.22;;;2.03;;
80578;SDS011;69939;52.402;6.608;2023-07-31T12:41:13;1.67;;;1.10;;
80578;SDS011;69939;52.402;6.608;2023-07-31T12:43:43;3.72;;;2.10;;
80578;SDS011;69939;52.402;6.608;2023-07-31T12:46:13;1.83;;;1.38;;
80578;SDS011;69939;52.402;6.608;2023-07-31T12:51:14;2.35;;;1.70;;
80578;SDS011;69939;52.402;6.608;2023-07-31T12:53:43;3.30;;;2.03;;
80578;SDS011;69939;52.402;6.608;2023-07-31T12:58:42;2.72;;;0.95;;
80578;SDS011;69939;52.402;6.608;2023-07-31T13:01:12;2.55;;;1.73;;
80578;SDS011;69939;52.402;6.608;2023-07-31T13:03:41;1.92;;;1.75;;
80578;SDS011;69939;52.402;6.608;2023-07-31T13:06:10;2.08;;;1.80;;
80578;SDS011;69939;52.402;6.608;2023-07-31T13:08:42;1.58;;;1.02;;
80578;SDS011;69939;52.402;6.608;2023-07-31T13:11:11;1.60;;;1.48;;
80578;SDS011;69939;52.402;6.608;2023-07-31T13:13:40;1.88;;;1.58;;
80578;SDS011;69939;52.402;6.608;2023-07-31T13:16:10;3.15;;;2.50;;
80578;SDS011;69939;52.402;6.608;2023-07-31T13:18:39;3.28;;;1.90;;
80578;SDS011;69939;52.402;6.608;2023-07-31T13:21:08;3.42;;;2.05;;
80578;SDS011;69939;52.402;6.608;2023-07-31T13:26:09;1.40;;;1.30;;
80578;SDS011;69939;52.402;6.608;2023-07-31T13:28:38;2.30;;;1.88;;
80578;SDS011;69939;52.402;6.608;2023-07-31T13:31:07;3.75;;;2.90;;
80578;SDS011;69939;52.402;6.608;2023-07-31T13:33:36;2.10;;;1.90;;
80578;SDS011;69939;52.402;6.608;2023-07-31T13:36:06;2.90;;;2.40;;
80578;SDS011;69939;52.402;6.608;2023-07-31T13:38:36;2.88;;;2.55;;
80578;SDS011;69939;52.402;6.608;2023-07-31T13:41:06;3.60;;;2.08;;
80578;SDS011;69939;52.402;6.608;2023-07-31T13:43:37;4.40;;;2.80;;
80578;SDS011;69939;52.402;6.608;2023-07-31T13:48:36;2.65;;;2.35;;
80578;SDS011;69939;52.402;6.608;2023-07-31T13:51:05;2.60;;;2.40;;
80578;SDS011;69939;52.402;6.608;2023-07-31T13:53:34;2.65;;;2.15;;
80578;SDS011;69939;52.402;6.608;2023-07-31T13:58:35;2.97;;;2.22;;
80578;SDS011;69939;52.402;6.608;2023-07-31T14:01:04;5.70;;;2.70;;
80578;SDS011;69939;52.402;6.608;2023-07-31T14:03:34;3.10;;;2.78;;
80578;SDS011;69939;52.402;6.608;2023-07-31T14:06:03;3.07;;;2.63;;
80578;SDS011;69939;52.402;6.608;2023-07-31T14:08:32;2.65;;;2.05;;
80578;SDS011;69939;52.402;6.608;2023-07-31T14:11:01;2.33;;;1.67;;
80578;SDS011;69939;52.402;6.608;2023-07-31T14:13:31;1.58;;;1.48;;
80578;SDS011;69939;52.402;6.608;2023-07-31T14:16:03;2.58;;;2.00;;
80578;SDS011;69939;52.402;6.608;2023-07-31T14:18:32;3.05;;;2.15;;
80578;SDS011;69939;52.402;6.608;2023-07-31T14:21:01;2.67;;;2.47;;
80578;SDS011;69939;52.402;6.608;2023-07-31T14:23:31;2.95;;;2.65;;
80578;SDS011;69939;52.402;6.608;2023-07-31T14:26:05;2.78;;;2.25;;
80578;SDS011;69939;52.402;6.608;2023-07-31T14:28:35;3.25;;;2.65;;
80578;SDS011;69939;52.402;6.608;2023-07-31T14:31:07;2.45;;;1.83;;
80578;SDS011;69939;52.402;6.608;2023-07-31T14:33:36;3.05;;;2.53;;
80578;SDS011;69939;52.402;6.608;2023-07-31T14:36:08;2.50;;;1.63;;
80578;SDS011;69939;52.402;6.608;2023-07-31T14:41:07;3.08;;;2.28;;
80578;SDS011;69939;52.402;6.608;2023-07-31T14:43:36;3.97;;;2.95;;
80578;SDS011;69939;52.402;6.608;2023-07-31T14:46:08;3.90;;;2.75;;
80578;SDS011;69939;52.402;6.608;2023-07-31T14:48:37;2.55;;;2.33;;
80578;SDS011;69939;52.402;6.608;2023-07-31T14:51:03;3.13;;;2.50;;
80578;SDS011;69939;52.402;6.608;2023-07-31T14:53:33;2.35;;;2.15;;
80578;SDS011;69939;52.402;6.608;2023-07-31T14:58:31;4.18;;;2.55;;
80578;SDS011;69939;52.402;6.608;2023-07-31T15:01:00;3.92;;;3.22;;
80578;SDS011;69939;52.402;6.608;2023-07-31T15:03:38;3.00;;;2.20;;
80578;SDS011;69939;52.402;6.608;2023-07-31T15:06:07;3.90;;;2.05;;
80578;SDS011;69939;52.402;6.608;2023-07-31T15:08:38;3.45;;;2.78;;
80578;SDS011;69939;52.402;6.608;2023-07-31T15:11:07;3.35;;;2.67;;
80578;SDS011;69939;52.402;6.608;2023-07-31T15:13:38;2.50;;;1.80;;
80578;SDS011;69939;52.402;6.608;2023-07-31T15:18:38;2.15;;;1.60;;
80578;SDS011;69939;52.402;6.608;2023-07-31T15:21:08;2.30;;;1.98;;
80578;SDS011;69939;52.402;6.608;2023-07-31T15:23:37;3.38;;;2.10;;
80578;SDS011;69939;52.402;6.608;2023-07-31T15:26:06;3.63;;;2.40;;
80578;SDS011;69939;52.402;6.608;2023-07-31T15:31:04;1.60;;;1.42;;
80578;SDS011;69939;52.402;6.608;2023-07-31T15:33:40;3.42;;;1.73;;
80578;SDS011;69939;52.402;6.608;2023-07-31T15:36:09;2.15;;;1.67;;
80578;SDS011;69939;52.402;6.608;2023-07-31T15:38:38;2.35;;;1.65;;
80578;SDS011;69939;52.402;6.608;2023-07-31T15:43:36;2.83;;;1.55;;
80578;SDS011;69939;52.402;6.608;2023-07-31T15:46:05;2.13;;;1.58;;
80578;SDS011;69939;52.402;6.608;2023-07-31T15:48:34;4.05;;;2.10;;
80578;SDS011;69939;52.402;6.608;2023-07-31T15:51:06;1.75;;;1.48;;
80578;SDS011;69939;52.402;6.608;2023-07-31T15:53:36;1.83;;;1.38;;
80578;SDS011;69939;52.402;6.608;2023-07-31T15:56:06;3.00;;;1.50;;
80578;SDS011;69939;52.402;6.608;2023-07-31T15:58:38;1.67;;;1.15;;
80578;SDS011;69939;52.402;6.608;2023-07-31T16:01:10;1.98;;;1.63;;
80578;SDS011;69939;52.402;6.608;2023-07-31T16:03:42;1.55;;;1.45;;
80578;SDS011;69939;52.402;6.608;2023-07-31T16:06:13;2.85;;;1.67;;
80578;SDS011;69939;52.402;6.608;2023-07-31T16:08:43;0.70;;;0.70;;
80578;SDS011;69939;52.402;6.608;2023-07-31T16:11:12;0.93;;;0.60;;
80578;SDS011;69939;52.402;6.608;2023-07-31T16:16:10;2.00;;;1.33;;
80578;SDS011;69939;52.402;6.608;2023-07-31T16:21:08;2.90;;;1.60;;
80578;SDS011;69939;52.402;6.608;2023-07-31T16:23:40;1.25;;;0.80;;
80578;SDS011;69939;52.402;6.608;2023-07-31T16:26:10;1.65;;;1.30;;
80578;SDS011;69939;52.402;6.608;2023-07-31T16:28:39;2.05;;;1.65;;
80578;SDS011;69939;52.402;6.608;2023-07-31T16:33:37;3.65;;;1.05;;